sensor_id;sensor_type;location;lat;lon;timestamp;P1;durP1;ratioP1;P2;durP2;ratioP2
49722;SDS011;43484;43.608;1.458;2023-07-31T00:01:19;9.18;;;3.55;;
49722;SDS011;43484;43.608;1.458;2023-07-31T00:03:46;11.13;;;3.53;;
49722;SDS011;43484;43.608;1.458;2023-07-31T00:06:13;7.82;;;2.92;;
49722;SDS011;43484;43.608;1.458;2023-07-31T00:08:40;8.02;;;2.88;;
49722;SDS011;43484;43.608;1.458;2023-07-31T00:11:06;11.85;;;3.25;;
49722;SDS011;43484;43.608;1.458;2023-07-31T00:13:33;12.40;;;3.17;;
49722;SDS011;43484;43.608;1.458;2023-07-31T00:16:00;12.88;;;2.97;;
49722;SDS011;43484;43.608;1.458;2023-07-31T00:18:28;7.45;;;2.88;;
49722;SDS011;43484;43.608;1.458;2023-07-31T00:20:54;10.90;;;2.95;;
49722;SDS011;43484;43.608;1.458;2023-07-31T00:23:21;5.90;;;2.90;;
49722;SDS011;43484;43.608;1.458;2023-07-31T00:25:48;9.95;;;3.38;;
49722;SDS011;43484;43.608;1.458;2023-07-31T00:28:15;11.20;;;3.30;;
49722;SDS011;43484;43.608;1.458;2023-07-31T00:30:42;10.85;;;3.22;;
49722;SDS011;43484;43.608;1.458;2023-07-31T00:33:08;7.43;;;2.75;;
49722;SDS011;43484;43.608;1.458;2023-07-31T00:35:35;10.10;;;3.15;;
49722;SDS011;43484;43.608;1.458;2023-07-31T00:38:01;7.13;;;3.03;;
49722;SDS011;43484;43.608;1.458;2023-07-31T00:40:28;10.52;;;3.17;;
49722;SDS011;43484;43.608;1.458;2023-07-31T00:42:55;10.63;;;3.40;;
49722;SDS011;43484;43.608;1.458;2023-07-31T00:45:21;7.55;;;2.85;;
49722;SDS011;43484;43.608;1.458;2023-07-31T00:47:49;10.30;;;2.70;;
49722;SDS011;43484;43.608;1.458;2023-07-31T00:50:16;6.80;;;3.00;;
49722;SDS011;43484;43.608;1.458;2023-07-31T00:52:43;9.95;;;3.25;;
49722;SDS011;43484;43.608;1.458;2023-07-31T00:55:10;9.18;;;3.33;;
49722;SDS011;43484;43.608;1.458;2023-07-31T00:57:37;9.88;;;2.75;;
49722;SDS011;43484;43.608;1.458;2023-07-31T01:00:07;12.07;;;3.70;;
49722;SDS011;43484;43.608;1.458;2023-07-31T01:02:35;7.13;;;2.95;;
49722;SDS011;43484;43.608;1.458;2023-07-31T01:05:02;6.25;;;3.17;;
49722;SDS011;43484;43.608;1.458;2023-07-31T01:10:41;7.53;;;3.08;;
49722;SDS011;43484;43.608;1.458;2023-07-31T01:13:15;8.45;;;3.42;;
49722;SDS011;43484;43.608;1.458;2023-07-31T01:15:43;9.35;;;3.15;;
49722;SDS011;43484;43.608;1.458;2023-07-31T01:18:09;8.35;;;3.38;;
49722;SDS011;43484;43.608;1.458;2023-07-31T01:20:36;11.25;;;3.33;;
49722;SDS011;43484;43.608;1.458;2023-07-31T01:29:04;10.45;;;3.20;;
49722;SDS011;43484;43.608;1.458;2023-07-31T01:31:37;12.60;;;3.63;;
49722;SDS011;43484;43.608;1.458;2023-07-31T01:34:06;10.95;;;3.58;;
49722;SDS011;43484;43.608;1.458;2023-07-31T01:36:36;8.98;;;3.22;;
49722;SDS011;43484;43.608;1.458;2023-07-31T01:39:03;7.38;;;3.20;;
49722;SDS011;43484;43.608;1.458;2023-07-31T01:41:30;11.02;;;3.05;;
49722;SDS011;43484;43.608;1.458;2023-07-31T01:43:57;8.77;;;2.88;;
49722;SDS011;43484;43.608;1.458;2023-07-31T01:46:23;8.05;;;2.83;;
49722;SDS011;43484;43.608;1.458;2023-07-31T01:48:50;11.10;;;3.30;;
49722;SDS011;43484;43.608;1.458;2023-07-31T01:51:17;11.82;;;3.47;;
49722;SDS011;43484;43.608;1.458;2023-07-31T01:53:43;9.55;;;3.10;;
49722;SDS011;43484;43.608;1.458;2023-07-31T01:56:10;11.35;;;3.60;;
49722;SDS011;43484;43.608;1.458;2023-07-31T01:58:37;8.93;;;3.50;;
49722;SDS011;43484;43.608;1.458;2023-07-31T02:01:04;9.95;;;3.40;;
49722;SDS011;43484;43.608;1.458;2023-07-31T02:03:31;7.35;;;3.55;;
49722;SDS011;43484;43.608;1.458;2023-07-31T02:05:57;6.68;;;2.83;;
49722;SDS011;43484;43.608;1.458;2023-07-31T02:08:24;7.68;;;3.05;;
49722;SDS011;43484;43.608;1.458;2023-07-31T02:10:51;8.60;;;2.90;;
49722;SDS011;43484;43.608;1.458;2023-07-31T02:13:18;8.55;;;3.78;;
49722;SDS011;43484;43.608;1.458;2023-07-31T02:15:45;6.88;;;3.25;;
49722;SDS011;43484;43.608;1.458;2023-07-31T02:18:12;8.55;;;2.90;;
49722;SDS011;43484;43.608;1.458;2023-07-31T02:20:39;12.85;;;3.83;;
49722;SDS011;43484;43.608;1.458;2023-07-31T02:23:05;6.88;;;2.88;;
49722;SDS011;43484;43.608;1.458;2023-07-31T02:25:32;8.40;;;3.38;;
49722;SDS011;43484;43.608;1.458;2023-07-31T02:27:58;10.63;;;3.60;;
49722;SDS011;43484;43.608;1.458;2023-07-31T02:30:25;17.33;;;4.00;;
49722;SDS011;43484;43.608;1.458;2023-07-31T02:32:52;9.52;;;3.50;;
49722;SDS011;43484;43.608;1.458;2023-07-31T02:35:18;7.28;;;3.10;;
49722;SDS011;43484;43.608;1.458;2023-07-31T02:37:45;7.15;;;3.25;;
49722;SDS011;43484;43.608;1.458;2023-07-31T02:40:12;9.77;;;3.60;;
49722;SDS011;43484;43.608;1.458;2023-07-31T02:42:38;10.30;;;3.53;;
49722;SDS011;43484;43.608;1.458;2023-07-31T02:45:05;7.05;;;3.28;;
49722;SDS011;43484;43.608;1.458;2023-07-31T02:47:32;12.07;;;3.28;;
49722;SDS011;43484;43.608;1.458;2023-07-31T02:49:59;7.80;;;3.05;;
49722;SDS011;43484;43.608;1.458;2023-07-31T02:52:26;11.15;;;3.67;;
49722;SDS011;43484;43.608;1.458;2023-07-31T02:54:52;13.02;;;3.75;;
49722;SDS011;43484;43.608;1.458;2023-07-31T02:57:19;8.88;;;3.30;;
49722;SDS011;43484;43.608;1.458;2023-07-31T02:59:45;6.15;;;2.90;;
49722;SDS011;43484;43.608;1.458;2023-07-31T03:02:12;13.88;;;4.03;;
49722;SDS011;43484;43.608;1.458;2023-07-31T03:04:39;13.38;;;3.30;;
49722;SDS011;43484;43.608;1.458;2023-07-31T03:07:06;9.98;;;3.30;;
49722;SDS011;43484;43.608;1.458;2023-07-31T03:09:33;10.98;;;3.38;;
49722;SDS011;43484;43.608;1.458;2023-07-31T03:11:59;7.85;;;3.20;;
49722;SDS011;43484;43.608;1.458;2023-07-31T03:14:26;9.63;;;2.63;;
49722;SDS011;43484;43.608;1.458;2023-07-31T03:16:53;7.95;;;3.40;;
49722;SDS011;43484;43.608;1.458;2023-07-31T03:19:20;9.80;;;2.90;;
49722;SDS011;43484;43.608;1.458;2023-07-31T03:21:46;11.68;;;3.38;;
49722;SDS011;43484;43.608;1.458;2023-07-31T03:24:13;9.02;;;2.97;;
49722;SDS011;43484;43.608;1.458;2023-07-31T03:26:39;10.18;;;3.80;;
49722;SDS011;43484;43.608;1.458;2023-07-31T03:29:08;4.85;;;2.72;;
49722;SDS011;43484;43.608;1.458;2023-07-31T03:31:34;9.25;;;3.17;;
49722;SDS011;43484;43.608;1.458;2023-07-31T03:34:01;12.65;;;3.17;;
49722;SDS011;43484;43.608;1.458;2023-07-31T03:36:28;11.13;;;3.53;;
49722;SDS011;43484;43.608;1.458;2023-07-31T03:38:54;8.80;;;3.10;;
49722;SDS011;43484;43.608;1.458;2023-07-31T03:41:21;15.32;;;3.78;;
49722;SDS011;43484;43.608;1.458;2023-07-31T03:43:49;11.90;;;4.05;;
49722;SDS011;43484;43.608;1.458;2023-07-31T03:46:19;10.65;;;3.88;;
49722;SDS011;43484;43.608;1.458;2023-07-31T03:48:46;8.57;;;3.25;;
49722;SDS011;43484;43.608;1.458;2023-07-31T03:51:13;8.20;;;2.78;;
49722;SDS011;43484;43.608;1.458;2023-07-31T03:53:40;10.45;;;3.47;;
49722;SDS011;43484;43.608;1.458;2023-07-31T03:56:06;10.63;;;3.40;;
49722;SDS011;43484;43.608;1.458;2023-07-31T03:58:33;10.75;;;3.50;;
49722;SDS011;43484;43.608;1.458;2023-07-31T04:01:01;13.73;;;3.28;;
49722;SDS011;43484;43.608;1.458;2023-07-31T04:03:27;7.60;;;3.33;;
49722;SDS011;43484;43.608;1.458;2023-07-31T04:05:54;8.10;;;3.53;;
49722;SDS011;43484;43.608;1.458;2023-07-31T04:08:24;9.95;;;3.70;;
49722;SDS011;43484;43.608;1.458;2023-07-31T04:10:51;9.60;;;3.72;;
49722;SDS011;43484;43.608;1.458;2023-07-31T04:13:17;14.98;;;3.35;;
49722;SDS011;43484;43.608;1.458;2023-07-31T04:15:47;13.48;;;4.07;;
49722;SDS011;43484;43.608;1.458;2023-07-31T04:18:17;11.60;;;3.85;;
49722;SDS011;43484;43.608;1.458;2023-07-31T04:20:44;22.85;;;4.32;;
49722;SDS011;43484;43.608;1.458;2023-07-31T04:23:11;9.48;;;3.20;;
49722;SDS011;43484;43.608;1.458;2023-07-31T04:25:37;8.77;;;3.25;;
49722;SDS011;43484;43.608;1.458;2023-07-31T04:28:04;15.63;;;4.13;;
49722;SDS011;43484;43.608;1.458;2023-07-31T04:30:31;13.13;;;3.33;;
49722;SDS011;43484;43.608;1.458;2023-07-31T04:32:58;10.15;;;3.28;;
49722;SDS011;43484;43.608;1.458;2023-07-31T04:35:24;9.02;;;3.22;;
49722;SDS011;43484;43.608;1.458;2023-07-31T04:37:51;7.28;;;2.95;;
49722;SDS011;43484;43.608;1.458;2023-07-31T04:40:18;11.20;;;3.13;;
49722;SDS011;43484;43.608;1.458;2023-07-31T04:42:45;10.10;;;4.07;;
49722;SDS011;43484;43.608;1.458;2023-07-31T04:45:12;10.75;;;3.72;;
49722;SDS011;43484;43.608;1.458;2023-07-31T04:47:39;9.57;;;3.17;;
49722;SDS011;43484;43.608;1.458;2023-07-31T04:50:06;12.15;;;4.13;;
49722;SDS011;43484;43.608;1.458;2023-07-31T04:52:33;8.27;;;3.38;;
49722;SDS011;43484;43.608;1.458;2023-07-31T04:54:59;15.23;;;4.35;;
49722;SDS011;43484;43.608;1.458;2023-07-31T04:57:26;6.45;;;3.53;;
49722;SDS011;43484;43.608;1.458;2023-07-31T04:59:52;7.03;;;3.20;;
49722;SDS011;43484;43.608;1.458;2023-07-31T05:02:19;15.63;;;3.88;;
49722;SDS011;43484;43.608;1.458;2023-07-31T05:04:46;10.48;;;3.88;;
49722;SDS011;43484;43.608;1.458;2023-07-31T05:07:13;11.77;;;3.70;;
49722;SDS011;43484;43.608;1.458;2023-07-31T05:09:39;8.35;;;3.22;;
49722;SDS011;43484;43.608;1.458;2023-07-31T05:12:06;9.45;;;4.25;;
49722;SDS011;43484;43.608;1.458;2023-07-31T05:14:33;11.48;;;4.10;;
49722;SDS011;43484;43.608;1.458;2023-07-31T05:16:59;11.95;;;4.50;;
49722;SDS011;43484;43.608;1.458;2023-07-31T05:19:26;14.35;;;4.68;;
49722;SDS011;43484;43.608;1.458;2023-07-31T05:21:52;11.57;;;3.38;;
49722;SDS011;43484;43.608;1.458;2023-07-31T05:24:19;13.23;;;3.60;;
49722;SDS011;43484;43.608;1.458;2023-07-31T05:26:45;11.02;;;3.33;;
49722;SDS011;43484;43.608;1.458;2023-07-31T05:29:12;12.65;;;3.80;;
49722;SDS011;43484;43.608;1.458;2023-07-31T05:31:39;7.82;;;3.35;;
49722;SDS011;43484;43.608;1.458;2023-07-31T05:34:05;9.40;;;3.85;;
49722;SDS011;43484;43.608;1.458;2023-07-31T05:36:32;13.98;;;3.88;;
49722;SDS011;43484;43.608;1.458;2023-07-31T05:38:58;13.30;;;3.40;;
49722;SDS011;43484;43.608;1.458;2023-07-31T05:41:25;11.77;;;3.95;;
49722;SDS011;43484;43.608;1.458;2023-07-31T05:43:52;20.25;;;4.05;;
49722;SDS011;43484;43.608;1.458;2023-07-31T05:46:19;14.77;;;3.55;;
49722;SDS011;43484;43.608;1.458;2023-07-31T05:48:45;12.75;;;4.10;;
49722;SDS011;43484;43.608;1.458;2023-07-31T05:51:12;15.77;;;4.38;;
49722;SDS011;43484;43.608;1.458;2023-07-31T05:53:39;13.70;;;3.53;;
49722;SDS011;43484;43.608;1.458;2023-07-31T05:56:07;14.13;;;3.60;;
49722;SDS011;43484;43.608;1.458;2023-07-31T05:58:33;12.40;;;3.88;;
49722;SDS011;43484;43.608;1.458;2023-07-31T06:01:00;8.77;;;3.10;;
49722;SDS011;43484;43.608;1.458;2023-07-31T06:03:27;10.93;;;3.60;;
49722;SDS011;43484;43.608;1.458;2023-07-31T06:05:54;12.70;;;3.38;;
49722;SDS011;43484;43.608;1.458;2023-07-31T06:08:21;9.13;;;3.42;;
49722;SDS011;43484;43.608;1.458;2023-07-31T06:10:48;12.13;;;3.70;;
49722;SDS011;43484;43.608;1.458;2023-07-31T06:13:14;12.05;;;3.53;;
49722;SDS011;43484;43.608;1.458;2023-07-31T06:15:41;14.20;;;3.65;;
49722;SDS011;43484;43.608;1.458;2023-07-31T06:18:08;13.52;;;3.58;;
49722;SDS011;43484;43.608;1.458;2023-07-31T06:20:34;22.52;;;4.13;;
49722;SDS011;43484;43.608;1.458;2023-07-31T06:23:01;15.73;;;4.15;;
49722;SDS011;43484;43.608;1.458;2023-07-31T06:25:28;7.28;;;2.95;;
49722;SDS011;43484;43.608;1.458;2023-07-31T06:27:55;16.75;;;3.63;;
49722;SDS011;43484;43.608;1.458;2023-07-31T06:30:22;9.15;;;3.30;;
49722;SDS011;43484;43.608;1.458;2023-07-31T06:32:48;12.70;;;3.55;;
49722;SDS011;43484;43.608;1.458;2023-07-31T06:35:15;11.55;;;4.00;;
49722;SDS011;43484;43.608;1.458;2023-07-31T06:37:41;13.25;;;4.00;;
49722;SDS011;43484;43.608;1.458;2023-07-31T06:40:10;8.23;;;3.05;;
49722;SDS011;43484;43.608;1.458;2023-07-31T06:42:37;15.90;;;4.25;;
49722;SDS011;43484;43.608;1.458;2023-07-31T06:45:04;14.05;;;4.22;;
49722;SDS011;43484;43.608;1.458;2023-07-31T06:47:31;15.45;;;3.53;;
49722;SDS011;43484;43.608;1.458;2023-07-31T06:49:58;15.50;;;3.33;;
49722;SDS011;43484;43.608;1.458;2023-07-31T06:52:25;15.05;;;3.17;;
49722;SDS011;43484;43.608;1.458;2023-07-31T06:55:15;13.77;;;3.28;;
49722;SDS011;43484;43.608;1.458;2023-07-31T06:57:46;17.48;;;3.85;;
49722;SDS011;43484;43.608;1.458;2023-07-31T07:00:14;17.90;;;4.28;;
49722;SDS011;43484;43.608;1.458;2023-07-31T07:02:41;14.85;;;4.20;;
49722;SDS011;43484;43.608;1.458;2023-07-31T07:05:08;11.93;;;3.25;;
49722;SDS011;43484;43.608;1.458;2023-07-31T07:07:35;13.45;;;3.13;;
49722;SDS011;43484;43.608;1.458;2023-07-31T07:10:02;13.48;;;3.22;;
49722;SDS011;43484;43.608;1.458;2023-07-31T07:12:31;11.50;;;4.30;;
49722;SDS011;43484;43.608;1.458;2023-07-31T07:14:59;12.60;;;3.50;;
49722;SDS011;43484;43.608;1.458;2023-07-31T07:17:27;14.80;;;3.08;;
49722;SDS011;43484;43.608;1.458;2023-07-31T07:19:57;13.40;;;3.30;;
49722;SDS011;43484;43.608;1.458;2023-07-31T07:22:25;11.50;;;3.42;;
49722;SDS011;43484;43.608;1.458;2023-07-31T07:24:54;8.18;;;3.25;;
49722;SDS011;43484;43.608;1.458;2023-07-31T07:27:21;11.93;;;3.50;;
49722;SDS011;43484;43.608;1.458;2023-07-31T07:29:49;9.23;;;3.55;;
49722;SDS011;43484;43.608;1.458;2023-07-31T07:32:18;14.95;;;3.53;;
49722;SDS011;43484;43.608;1.458;2023-07-31T07:34:45;13.45;;;4.00;;
49722;SDS011;43484;43.608;1.458;2023-07-31T07:37:14;13.45;;;3.08;;
49722;SDS011;43484;43.608;1.458;2023-07-31T07:39:40;17.77;;;3.92;;
49722;SDS011;43484;43.608;1.458;2023-07-31T07:42:07;15.52;;;3.78;;
49722;SDS011;43484;43.608;1.458;2023-07-31T07:44:34;11.23;;;3.17;;
49722;SDS011;43484;43.608;1.458;2023-07-31T07:47:01;11.80;;;3.72;;
49722;SDS011;43484;43.608;1.458;2023-07-31T07:49:27;15.50;;;4.00;;
49722;SDS011;43484;43.608;1.458;2023-07-31T07:51:54;21.15;;;4.20;;
49722;SDS011;43484;43.608;1.458;2023-07-31T07:54:21;15.23;;;3.67;;
49722;SDS011;43484;43.608;1.458;2023-07-31T07:56:47;20.80;;;4.15;;
49722;SDS011;43484;43.608;1.458;2023-07-31T07:59:14;12.57;;;2.83;;
49722;SDS011;43484;43.608;1.458;2023-07-31T08:01:41;13.63;;;3.47;;
49722;SDS011;43484;43.608;1.458;2023-07-31T08:04:07;13.90;;;3.42;;
49722;SDS011;43484;43.608;1.458;2023-07-31T08:06:34;11.80;;;3.55;;
49722;SDS011;43484;43.608;1.458;2023-07-31T08:09:01;13.00;;;3.45;;
49722;SDS011;43484;43.608;1.458;2023-07-31T08:11:32;17.00;;;4.55;;
49722;SDS011;43484;43.608;1.458;2023-07-31T08:13:59;13.07;;;4.00;;
49722;SDS011;43484;43.608;1.458;2023-07-31T08:16:25;13.73;;;2.63;;
49722;SDS011;43484;43.608;1.458;2023-07-31T08:18:52;14.90;;;3.17;;
49722;SDS011;43484;43.608;1.458;2023-07-31T08:21:19;11.38;;;3.42;;
49722;SDS011;43484;43.608;1.458;2023-07-31T08:23:45;20.05;;;3.42;;
49722;SDS011;43484;43.608;1.458;2023-07-31T08:26:15;13.98;;;3.78;;
49722;SDS011;43484;43.608;1.458;2023-07-31T08:28:43;14.20;;;3.45;;
49722;SDS011;43484;43.608;1.458;2023-07-31T08:31:10;39.60;;;6.15;;
49722;SDS011;43484;43.608;1.458;2023-07-31T08:33:38;44.95;;;5.70;;
49722;SDS011;43484;43.608;1.458;2023-07-31T08:36:05;12.45;;;3.70;;
49722;SDS011;43484;43.608;1.458;2023-07-31T08:38:32;10.77;;;3.30;;
49722;SDS011;43484;43.608;1.458;2023-07-31T08:40:59;15.52;;;3.40;;
49722;SDS011;43484;43.608;1.458;2023-07-31T08:43:26;18.60;;;3.90;;
49722;SDS011;43484;43.608;1.458;2023-07-31T08:45:53;83.82;;;7.38;;
49722;SDS011;43484;43.608;1.458;2023-07-31T08:48:23;10.23;;;3.10;;
49722;SDS011;43484;43.608;1.458;2023-07-31T08:50:51;9.57;;;3.05;;
49722;SDS011;43484;43.608;1.458;2023-07-31T08:53:19;40.00;;;4.28;;
49722;SDS011;43484;43.608;1.458;2023-07-31T08:55:46;9.57;;;3.60;;
49722;SDS011;43484;43.608;1.458;2023-07-31T08:58:14;10.55;;;2.85;;
49722;SDS011;43484;43.608;1.458;2023-07-31T09:00:42;17.30;;;3.10;;
49722;SDS011;43484;43.608;1.458;2023-07-31T09:03:17;20.15;;;3.70;;
49722;SDS011;43484;43.608;1.458;2023-07-31T09:05:45;8.32;;;2.45;;
49722;SDS011;43484;43.608;1.458;2023-07-31T09:08:13;8.50;;;2.67;;
49722;SDS011;43484;43.608;1.458;2023-07-31T09:10:44;7.50;;;2.55;;
49722;SDS011;43484;43.608;1.458;2023-07-31T09:13:16;10.55;;;3.13;;
49722;SDS011;43484;43.608;1.458;2023-07-31T09:15:44;6.63;;;2.00;;
49722;SDS011;43484;43.608;1.458;2023-07-31T09:18:12;7.28;;;2.40;;
49722;SDS011;43484;43.608;1.458;2023-07-31T09:20:38;5.75;;;2.30;;
49722;SDS011;43484;43.608;1.458;2023-07-31T09:23:14;4.07;;;1.88;;
49722;SDS011;43484;43.608;1.458;2023-07-31T09:25:43;6.60;;;1.85;;
49722;SDS011;43484;43.608;1.458;2023-07-31T09:28:11;4.97;;;2.30;;
49722;SDS011;43484;43.608;1.458;2023-07-31T09:30:49;12.85;;;1.63;;
49722;SDS011;43484;43.608;1.458;2023-07-31T09:33:20;6.78;;;2.13;;
49722;SDS011;43484;43.608;1.458;2023-07-31T09:35:47;6.78;;;1.73;;
49722;SDS011;43484;43.608;1.458;2023-07-31T09:38:15;8.30;;;2.50;;
49722;SDS011;43484;43.608;1.458;2023-07-31T09:40:42;6.00;;;2.10;;
49722;SDS011;43484;43.608;1.458;2023-07-31T09:43:16;18.60;;;2.72;;
49722;SDS011;43484;43.608;1.458;2023-07-31T09:45:44;6.32;;;1.55;;
49722;SDS011;43484;43.608;1.458;2023-07-31T09:48:13;7.80;;;1.88;;
49722;SDS011;43484;43.608;1.458;2023-07-31T09:50:45;3.92;;;1.98;;
49722;SDS011;43484;43.608;1.458;2023-07-31T09:53:13;7.35;;;2.25;;
49722;SDS011;43484;43.608;1.458;2023-07-31T09:55:41;8.65;;;2.38;;
49722;SDS011;43484;43.608;1.458;2023-07-31T09:58:09;9.43;;;2.67;;
49722;SDS011;43484;43.608;1.458;2023-07-31T10:00:37;7.88;;;1.80;;
49722;SDS011;43484;43.608;1.458;2023-07-31T10:03:06;7.03;;;1.73;;
49722;SDS011;43484;43.608;1.458;2023-07-31T10:05:37;5.10;;;2.33;;
49722;SDS011;43484;43.608;1.458;2023-07-31T10:08:12;7.15;;;2.28;;
49722;SDS011;43484;43.608;1.458;2023-07-31T10:10:44;5.68;;;2.00;;
49722;SDS011;43484;43.608;1.458;2023-07-31T10:13:12;5.85;;;2.20;;
49722;SDS011;43484;43.608;1.458;2023-07-31T10:15:39;8.23;;;2.47;;
49722;SDS011;43484;43.608;1.458;2023-07-31T10:18:10;5.03;;;1.85;;
49722;SDS011;43484;43.608;1.458;2023-07-31T10:20:37;6.63;;;2.25;;
49722;SDS011;43484;43.608;1.458;2023-07-31T10:23:04;6.47;;;1.83;;
49722;SDS011;43484;43.608;1.458;2023-07-31T10:25:32;16.52;;;2.08;;
49722;SDS011;43484;43.608;1.458;2023-07-31T10:28:00;12.80;;;2.45;;
49722;SDS011;43484;43.608;1.458;2023-07-31T10:30:28;6.05;;;2.28;;
49722;SDS011;43484;43.608;1.458;2023-07-31T10:32:56;3.75;;;1.73;;
49722;SDS011;43484;43.608;1.458;2023-07-31T10:35:24;4.35;;;1.73;;
49722;SDS011;43484;43.608;1.458;2023-07-31T10:37:51;7.55;;;2.45;;
49722;SDS011;43484;43.608;1.458;2023-07-31T10:40:19;6.18;;;2.35;;
49722;SDS011;43484;43.608;1.458;2023-07-31T10:42:51;3.78;;;1.55;;
49722;SDS011;43484;43.608;1.458;2023-07-31T10:45:33;11.45;;;1.60;;
49722;SDS011;43484;43.608;1.458;2023-07-31T10:48:12;3.38;;;1.65;;
49722;SDS011;43484;43.608;1.458;2023-07-31T10:50:50;6.45;;;1.98;;
49722;SDS011;43484;43.608;1.458;2023-07-31T10:53:26;6.80;;;2.08;;
49722;SDS011;43484;43.608;1.458;2023-07-31T10:55:59;7.97;;;1.98;;
49722;SDS011;43484;43.608;1.458;2023-07-31T10:58:26;8.98;;;1.92;;
49722;SDS011;43484;43.608;1.458;2023-07-31T11:00:56;6.03;;;2.22;;
49722;SDS011;43484;43.608;1.458;2023-07-31T11:03:25;8.27;;;2.13;;
49722;SDS011;43484;43.608;1.458;2023-07-31T11:06:02;5.35;;;1.90;;
49722;SDS011;43484;43.608;1.458;2023-07-31T11:08:30;6.90;;;2.22;;
49722;SDS011;43484;43.608;1.458;2023-07-31T11:13:31;7.22;;;1.80;;
49722;SDS011;43484;43.608;1.458;2023-07-31T11:16:24;5.75;;;2.17;;
49722;SDS011;43484;43.608;1.458;2023-07-31T11:18:51;7.72;;;1.92;;
49722;SDS011;43484;43.608;1.458;2023-07-31T11:21:21;4.75;;;1.85;;
49722;SDS011;43484;43.608;1.458;2023-07-31T11:23:50;14.18;;;2.03;;
49722;SDS011;43484;43.608;1.458;2023-07-31T11:26:18;5.32;;;1.88;;
49722;SDS011;43484;43.608;1.458;2023-07-31T11:28:48;5.47;;;1.98;;
49722;SDS011;43484;43.608;1.458;2023-07-31T11:31:16;7.35;;;2.17;;
49722;SDS011;43484;43.608;1.458;2023-07-31T11:33:43;8.73;;;2.50;;
49722;SDS011;43484;43.608;1.458;2023-07-31T11:36:14;8.10;;;2.25;;
49722;SDS011;43484;43.608;1.458;2023-07-31T11:38:43;5.50;;;2.00;;
49722;SDS011;43484;43.608;1.458;2023-07-31T11:41:10;7.55;;;2.10;;
49722;SDS011;43484;43.608;1.458;2023-07-31T11:43:36;8.38;;;2.63;;
49722;SDS011;43484;43.608;1.458;2023-07-31T11:46:03;8.13;;;2.33;;
49722;SDS011;43484;43.608;1.458;2023-07-31T11:48:31;4.18;;;2.03;;
49722;SDS011;43484;43.608;1.458;2023-07-31T11:51:05;14.07;;;3.17;;
49722;SDS011;43484;43.608;1.458;2023-07-31T11:56:07;6.03;;;2.45;;
49722;SDS011;43484;43.608;1.458;2023-07-31T11:58:37;7.75;;;2.53;;
49722;SDS011;43484;43.608;1.458;2023-07-31T12:01:05;5.70;;;2.08;;
49722;SDS011;43484;43.608;1.458;2023-07-31T12:03:32;6.10;;;2.25;;
49722;SDS011;43484;43.608;1.458;2023-07-31T12:06:00;7.72;;;2.50;;
49722;SDS011;43484;43.608;1.458;2023-07-31T12:08:27;5.03;;;1.98;;
49722;SDS011;43484;43.608;1.458;2023-07-31T12:10:54;6.20;;;2.40;;
49722;SDS011;43484;43.608;1.458;2023-07-31T12:13:28;5.70;;;2.55;;
49722;SDS011;43484;43.608;1.458;2023-07-31T12:15:57;6.45;;;2.10;;
49722;SDS011;43484;43.608;1.458;2023-07-31T12:18:25;8.27;;;2.50;;
49722;SDS011;43484;43.608;1.458;2023-07-31T12:20:59;4.88;;;1.88;;
49722;SDS011;43484;43.608;1.458;2023-07-31T12:23:28;4.00;;;2.40;;
49722;SDS011;43484;43.608;1.458;2023-07-31T12:28:40;5.28;;;1.90;;
49722;SDS011;43484;43.608;1.458;2023-07-31T12:31:11;7.57;;;2.28;;
49722;SDS011;43484;43.608;1.458;2023-07-31T12:33:39;8.13;;;2.13;;
49722;SDS011;43484;43.608;1.458;2023-07-31T12:36:08;2.50;;;1.75;;
49722;SDS011;43484;43.608;1.458;2023-07-31T12:38:39;5.40;;;2.42;;
49722;SDS011;43484;43.608;1.458;2023-07-31T12:41:07;7.47;;;2.50;;
49722;SDS011;43484;43.608;1.458;2023-07-31T12:43:35;4.05;;;1.67;;
49722;SDS011;43484;43.608;1.458;2023-07-31T12:46:06;6.70;;;2.10;;
49722;SDS011;43484;43.608;1.458;2023-07-31T12:48:36;5.70;;;2.13;;
49722;SDS011;43484;43.608;1.458;2023-07-31T12:51:04;4.97;;;2.30;;
49722;SDS011;43484;43.608;1.458;2023-07-31T12:53:33;6.75;;;1.98;;
49722;SDS011;43484;43.608;1.458;2023-07-31T12:55:59;9.20;;;1.92;;
49722;SDS011;43484;43.608;1.458;2023-07-31T12:58:26;5.25;;;2.00;;
49722;SDS011;43484;43.608;1.458;2023-07-31T13:00:52;10.00;;;3.30;;
49722;SDS011;43484;43.608;1.458;2023-07-31T13:03:19;8.23;;;2.10;;
49722;SDS011;43484;43.608;1.458;2023-07-31T13:05:46;6.07;;;1.95;;
49722;SDS011;43484;43.608;1.458;2023-07-31T13:08:12;7.38;;;2.00;;
49722;SDS011;43484;43.608;1.458;2023-07-31T13:10:41;7.00;;;2.00;;
49722;SDS011;43484;43.608;1.458;2023-07-31T13:13:09;7.38;;;2.22;;
49722;SDS011;43484;43.608;1.458;2023-07-31T13:15:36;6.55;;;2.25;;
49722;SDS011;43484;43.608;1.458;2023-07-31T13:18:02;4.07;;;1.77;;
49722;SDS011;43484;43.608;1.458;2023-07-31T13:20:29;5.90;;;2.35;;
49722;SDS011;43484;43.608;1.458;2023-07-31T13:22:56;4.53;;;1.88;;
49722;SDS011;43484;43.608;1.458;2023-07-31T13:25:22;3.58;;;1.50;;
49722;SDS011;43484;43.608;1.458;2023-07-31T13:27:49;4.60;;;1.98;;
49722;SDS011;43484;43.608;1.458;2023-07-31T13:30:16;7.72;;;2.15;;
49722;SDS011;43484;43.608;1.458;2023-07-31T13:32:43;5.97;;;1.85;;
49722;SDS011;43484;43.608;1.458;2023-07-31T13:35:10;12.40;;;2.20;;
49722;SDS011;43484;43.608;1.458;2023-07-31T13:37:38;3.75;;;1.73;;
49722;SDS011;43484;43.608;1.458;2023-07-31T13:40:05;7.30;;;2.17;;
49722;SDS011;43484;43.608;1.458;2023-07-31T13:42:32;3.58;;;1.90;;
49722;SDS011;43484;43.608;1.458;2023-07-31T13:44:59;5.97;;;1.70;;
49722;SDS011;43484;43.608;1.458;2023-07-31T13:47:28;7.13;;;2.38;;
49722;SDS011;43484;43.608;1.458;2023-07-31T13:49:55;4.68;;;1.95;;
49722;SDS011;43484;43.608;1.458;2023-07-31T13:52:21;4.90;;;1.98;;
49722;SDS011;43484;43.608;1.458;2023-07-31T13:54:48;4.10;;;1.92;;
49722;SDS011;43484;43.608;1.458;2023-07-31T13:57:14;5.70;;;1.92;;
49722;SDS011;43484;43.608;1.458;2023-07-31T13:59:41;4.20;;;1.85;;
49722;SDS011;43484;43.608;1.458;2023-07-31T14:02:08;8.45;;;2.50;;
49722;SDS011;43484;43.608;1.458;2023-07-31T14:04:35;5.00;;;2.05;;
49722;SDS011;43484;43.608;1.458;2023-07-31T14:07:01;8.73;;;2.08;;
49722;SDS011;43484;43.608;1.458;2023-07-31T14:09:28;11.27;;;2.15;;
49722;SDS011;43484;43.608;1.458;2023-07-31T14:11:55;5.10;;;2.35;;
49722;SDS011;43484;43.608;1.458;2023-07-31T14:14:21;4.43;;;2.20;;
49722;SDS011;43484;43.608;1.458;2023-07-31T14:16:48;3.70;;;1.80;;
49722;SDS011;43484;43.608;1.458;2023-07-31T14:19:15;4.15;;;2.03;;
49722;SDS011;43484;43.608;1.458;2023-07-31T14:21:41;5.00;;;2.60;;
49722;SDS011;43484;43.608;1.458;2023-07-31T14:24:14;4.65;;;2.08;;
49722;SDS011;43484;43.608;1.458;2023-07-31T14:26:40;6.25;;;2.03;;
49722;SDS011;43484;43.608;1.458;2023-07-31T14:29:07;4.68;;;2.22;;
49722;SDS011;43484;43.608;1.458;2023-07-31T14:31:34;4.90;;;2.33;;
49722;SDS011;43484;43.608;1.458;2023-07-31T14:34:02;4.18;;;1.98;;
49722;SDS011;43484;43.608;1.458;2023-07-31T14:36:28;4.70;;;2.45;;
49722;SDS011;43484;43.608;1.458;2023-07-31T14:38:55;4.40;;;2.45;;
49722;SDS011;43484;43.608;1.458;2023-07-31T14:41:22;5.45;;;2.08;;
49722;SDS011;43484;43.608;1.458;2023-07-31T14:43:48;5.22;;;2.50;;
49722;SDS011;43484;43.608;1.458;2023-07-31T14:46:15;5.13;;;2.53;;
49722;SDS011;43484;43.608;1.458;2023-07-31T14:48:41;4.82;;;2.65;;
49722;SDS011;43484;43.608;1.458;2023-07-31T14:51:08;5.38;;;3.17;;
49722;SDS011;43484;43.608;1.458;2023-07-31T14:53:34;9.38;;;2.67;;
49722;SDS011;43484;43.608;1.458;2023-07-31T14:56:01;4.30;;;2.13;;
49722;SDS011;43484;43.608;1.458;2023-07-31T14:58:28;4.45;;;2.38;;
49722;SDS011;43484;43.608;1.458;2023-07-31T15:00:55;4.85;;;2.63;;
49722;SDS011;43484;43.608;1.458;2023-07-31T15:03:22;5.72;;;2.42;;